sensor_id;sensor_type;location;lat;lon;timestamp;pressure;altitude;pressure_sealevel;temperature;humidity
61086;BME280;46967;48.876;2.136;2022-10-16T00:01:56;100915.88;;;15.13;97.74
61086;BME280;46967;48.876;2.136;2022-10-16T00:04:21;100912.28;;;15.15;97.55
61086;BME280;46967;48.876;2.136;2022-10-16T00:06:47;100921.03;;;15.14;97.47
61086;BME280;46967;48.876;2.136;2022-10-16T00:09:12;100919.63;;;15.07;97.86
61086;BME280;46967;48.876;2.136;2022-10-16T00:11:39;100942.16;;;15.10;98.01
61086;BME280;46967;48.876;2.136;2022-10-16T00:14:09;100952.59;;;15.10;98.18
61086;BME280;46967;48.876;2.136;2022-10-16T00:16:35;100958.91;;;15.06;98.59
61086;BME280;46967;48.876;2.136;2022-10-16T00:19:01;100954.38;;;15.09;99.05
61086;BME280;46967;48.876;2.136;2022-10-16T00:21:28;100948.09;;;15.13;98.19
61086;BME280;46967;48.876;2.136;2022-10-16T00:23:59;100935.88;;;15.14;98.43
61086;BME280;46967;48.876;2.136;2022-10-16T00:26:26;100936.72;;;15.14;97.63
61086;BME280;46967;48.876;2.136;2022-10-16T00:28:52;100946.53;;;15.09;98.29
61086;BME280;46967;48.876;2.136;2022-10-16T00:31:20;100942.09;;;15.11;98.10
61086;BME280;46967;48.876;2.136;2022-10-16T00:33:45;100949.84;;;15.13;98.08
61086;BME280;46967;48.876;2.136;2022-10-16T00:36:14;100944.41;;;15.17;97.84
61086;BME280;46967;48.876;2.136;2022-10-16T00:38:40;100948.03;;;15.15;97.86
61086;BME280;46967;48.876;2.136;2022-10-16T00:41:07;100950.13;;;15.07;98.29
61086;BME280;46967;48.876;2.136;2022-10-16T00:43:46;100938.69;;;15.09;97.79
61086;BME280;46967;48.876;2.136;2022-10-16T00:46:19;100944.75;;;15.10;97.90
61086;BME280;46967;48.876;2.136;2022-10-16T00:51:26;100976.78;;;15.15;97.07
61086;BME280;46967;48.876;2.136;2022-10-16T00:53:54;100972.47;;;15.14;97.53
61086;BME280;46967;48.876;2.136;2022-10-16T00:56:20;100969.66;;;15.18;96.60
61086;BME280;46967;48.876;2.136;2022-10-16T00:58:45;100971.03;;;15.26;95.94
61086;BME280;46967;48.876;2.136;2022-10-16T01:01:11;100982.72;;;15.18;96.18
61086;BME280;46967;48.876;2.136;2022-10-16T01:03:36;100977.63;;;15.15;96.73
61086;BME280;46967;48.876;2.136;2022-10-16T01:09:11;100981.00;;;15.17;96.52
61086;BME280;46967;48.876;2.136;2022-10-16T01:11:49;100981.06;;;15.16;96.08
61086;BME280;46967;48.876;2.136;2022-10-16T01:17:39;100985.47;;;15.15;95.89
61086;BME280;46967;48.876;2.136;2022-10-16T01:20:23;100989.94;;;15.13;95.94
61086;BME280;46967;48.876;2.136;2022-10-16T01:28:56;100986.16;;;15.19;94.75
61086;BME280;46967;48.876;2.136;2022-10-16T01:31:26;100984.69;;;15.13;95.12
61086;BME280;46967;48.876;2.136;2022-10-16T01:34:02;100986.16;;;15.19;94.75
61086;BME280;46967;48.876;2.136;2022-10-16T01:36:37;100983.41;;;15.22;94.35
61086;BME280;46967;48.876;2.136;2022-10-16T01:39:06;100977.34;;;15.21;94.02
61086;BME280;46967;48.876;2.136;2022-10-16T01:41:38;100974.31;;;15.12;94.10
61086;BME280;46967;48.876;2.136;2022-10-16T01:44:09;100976.78;;;15.15;94.05
61086;BME280;46967;48.876;2.136;2022-10-16T01:46:37;100976.84;;;15.13;94.27
61086;BME280;46967;48.876;2.136;2022-10-16T01:49:06;100977.06;;;15.09;94.33
61086;BME280;46967;48.876;2.136;2022-10-16T01:51:33;100969.16;;;15.10;94.06
61086;BME280;46967;48.876;2.136;2022-10-16T01:54:01;100971.91;;;15.07;94.14
61086;BME280;46967;48.876;2.136;2022-10-16T01:56:27;100964.13;;;15.06;94.68
61086;BME280;46967;48.876;2.136;2022-10-16T01:59:06;100972.69;;;15.09;94.34
61086;BME280;46967;48.876;2.136;2022-10-16T02:01:37;100983.00;;;15.12;94.19
61086;BME280;46967;48.876;2.136;2022-10-16T02:04:09;100979.13;;;15.02;94.79
61086;BME280;46967;48.876;2.136;2022-10-16T02:06:36;100979.19;;;15.00;95.25
61086;BME280;46967;48.876;2.136;2022-10-16T02:09:02;100983.19;;;15.08;95.04
61086;BME280;46967;48.876;2.136;2022-10-16T02:11:27;100981.88;;;14.99;95.21
61086;BME280;46967;48.876;2.136;2022-10-16T02:13:56;100994.13;;;14.97;95.55
61086;BME280;46967;48.876;2.136;2022-10-16T02:16:33;100999.09;;;15.03;95.30
61086;BME280;46967;48.876;2.136;2022-10-16T02:18:59;100998.25;;;15.02;94.86
61086;BME280;46967;48.876;2.136;2022-10-16T02:21:30;100996.88;;;14.94;95.75
61086;BME280;46967;48.876;2.136;2022-10-16T02:26:51;100983.34;;;15.04;95.11
61086;BME280;46967;48.876;2.136;2022-10-16T02:29:22;100987.66;;;15.06;94.86
61086;BME280;46967;48.876;2.136;2022-10-16T02:31:51;100986.91;;;15.03;95.03
61086;BME280;46967;48.876;2.136;2022-10-16T02:34:20;100993.31;;;14.96;95.45
61086;BME280;46967;48.876;2.136;2022-10-16T02:36:48;100994.28;;;14.94;95.32
61086;BME280;46967;48.876;2.136;2022-10-16T02:39:15;101008.91;;;14.98;94.33
61086;BME280;46967;48.876;2.136;2022-10-16T02:41:42;100999.44;;;14.95;94.65
61086;BME280;46967;48.876;2.136;2022-10-16T02:44:07;101006.38;;;14.96;93.86
61086;BME280;46967;48.876;2.136;2022-10-16T02:46:33;101006.09;;;15.02;93.49
61086;BME280;46967;48.876;2.136;2022-10-16T02:48:58;101010.31;;;15.05;92.95
61086;BME280;46967;48.876;2.136;2022-10-16T02:51:23;101013.16;;;15.00;93.40
61086;BME280;46967;48.876;2.136;2022-10-16T02:53:49;101020.19;;;14.98;93.62
61086;BME280;46967;48.876;2.136;2022-10-16T02:56:14;101022.53;;;15.04;93.00
61086;BME280;46967;48.876;2.136;2022-10-16T02:58:39;101022.69;;;15.01;93.29
61086;BME280;46967;48.876;2.136;2022-10-16T03:01:05;101022.81;;;14.98;93.11
61086;BME280;46967;48.876;2.136;2022-10-16T03:03:30;101025.38;;;15.00;93.16
61086;BME280;46967;48.876;2.136;2022-10-16T03:05:55;101028.19;;;14.95;93.60
61086;BME280;46967;48.876;2.136;2022-10-16T03:08:21;101012.84;;;15.07;92.79
61086;BME280;46967;48.876;2.136;2022-10-16T03:10:49;101023.69;;;14.99;93.01
61086;BME280;46967;48.876;2.136;2022-10-16T03:13:15;101017.53;;;15.00;92.69
61086;BME280;46967;48.876;2.136;2022-10-16T03:15:40;101014.91;;;15.00;92.13
61086;BME280;46967;48.876;2.136;2022-10-16T03:18:05;101008.97;;;14.96;92.57
61086;BME280;46967;48.876;2.136;2022-10-16T03:20:31;101010.63;;;14.99;92.37
61086;BME280;46967;48.876;2.136;2022-10-16T03:22:56;101007.00;;;15.01;92.10
61086;BME280;46967;48.876;2.136;2022-10-16T03:25:22;101004.72;;;14.94;92.78
61086;BME280;46967;48.876;2.136;2022-10-16T03:27:47;100995.28;;;14.91;92.04
61086;BME280;46967;48.876;2.136;2022-10-16T03:30:12;101007.69;;;14.86;92.07
61086;BME280;46967;48.876;2.136;2022-10-16T03:32:38;101008.13;;;14.77;93.23
61086;BME280;46967;48.876;2.136;2022-10-16T03:35:03;101010.59;;;14.80;92.56
61086;BME280;46967;48.876;2.136;2022-10-16T03:37:29;101001.81;;;14.81;92.76
61086;BME280;46967;48.876;2.136;2022-10-16T03:39:54;100994.91;;;14.80;92.58
61086;BME280;46967;48.876;2.136;2022-10-16T03:42:20;101013.28;;;14.78;92.57
61086;BME280;46967;48.876;2.136;2022-10-16T03:44:45;101013.41;;;14.75;93.30
61086;BME280;46967;48.876;2.136;2022-10-16T03:47:10;101005.50;;;14.77;92.81
61086;BME280;46967;48.876;2.136;2022-10-16T03:49:35;101015.88;;;14.78;92.32
61086;BME280;46967;48.876;2.136;2022-10-16T03:52:01;101018.50;;;14.78;92.10
61086;BME280;46967;48.876;2.136;2022-10-16T03:54:26;101015.00;;;14.78;91.90
61086;BME280;46967;48.876;2.136;2022-10-16T03:56:51;101016.91;;;14.74;92.23
61086;BME280;46967;48.876;2.136;2022-10-16T03:59:17;101014.94;;;14.79;91.75
61086;BME280;46967;48.876;2.136;2022-10-16T04:01:42;101009.91;;;14.75;92.22
61086;BME280;46967;48.876;2.136;2022-10-16T04:04:07;101023.91;;;14.74;92.49
61086;BME280;46967;48.876;2.136;2022-10-16T04:06:33;101026.72;;;14.69;92.76
61086;BME280;46967;48.876;2.136;2022-10-16T04:08:58;101024.94;;;14.70;92.83
61086;BME280;46967;48.876;2.136;2022-10-16T04:11:23;101029.06;;;14.75;92.42
61086;BME280;46967;48.876;2.136;2022-10-16T04:13:49;101030.63;;;14.79;91.76
61086;BME280;46967;48.876;2.136;2022-10-16T04:16:14;101025.78;;;14.70;92.74
61086;BME280;46967;48.876;2.136;2022-10-16T04:18:39;101034.69;;;14.66;93.23
61086;BME280;46967;48.876;2.136;2022-10-16T04:21:06;101032.16;;;14.64;93.23
61086;BME280;46967;48.876;2.136;2022-10-16T04:23:32;101043.09;;;14.73;92.44
61086;BME280;46967;48.876;2.136;2022-10-16T04:25:57;101043.19;;;14.71;93.00
61086;BME280;46967;48.876;2.136;2022-10-16T04:28:23;101056.16;;;14.73;93.31
61086;BME280;46967;48.876;2.136;2022-10-16T04:30:48;101059.63;;;14.73;93.47
61086;BME280;46967;48.876;2.136;2022-10-16T04:33:13;101065.66;;;14.75;93.63
61086;BME280;46967;48.876;2.136;2022-10-16T04:35:39;101067.94;;;14.83;93.13
61086;BME280;46967;48.876;2.136;2022-10-16T04:38:04;101075.03;;;14.79;93.17
61086;BME280;46967;48.876;2.136;2022-10-16T04:40:30;101061.97;;;14.79;93.21
61086;BME280;46967;48.876;2.136;2022-10-16T04:42:58;101088.91;;;14.81;93.16
61086;BME280;46967;48.876;2.136;2022-10-16T04:45:24;101078.38;;;14.83;92.84
61086;BME280;46967;48.876;2.136;2022-10-16T04:47:49;101087.91;;;14.84;92.78
61086;BME280;46967;48.876;2.136;2022-10-16T04:50:14;101090.44;;;14.85;92.84
61086;BME280;46967;48.876;2.136;2022-10-16T04:52:40;101088.59;;;14.88;92.63
61086;BME280;46967;48.876;2.136;2022-10-16T04:55:05;101082.53;;;14.87;92.32
61086;BME280;46967;48.876;2.136;2022-10-16T04:57:31;101090.44;;;14.85;92.40
61086;BME280;46967;48.876;2.136;2022-10-16T04:59:58;101099.00;;;14.89;93.04
61086;BME280;46967;48.876;2.136;2022-10-16T05:02:24;101102.47;;;14.90;92.81
61086;BME280;46967;48.876;2.136;2022-10-16T05:04:50;101096.31;;;14.91;93.11
61086;BME280;46967;48.876;2.136;2022-10-16T05:07:15;101105.66;;;14.96;93.43
61086;BME280;46967;48.876;2.136;2022-10-16T05:09:41;101107.38;;;14.97;93.12
61086;BME280;46967;48.876;2.136;2022-10-16T05:12:06;101106.44;;;14.98;92.69
61086;BME280;46967;48.876;2.136;2022-10-16T05:14:31;101121.28;;;14.98;93.03
61086;BME280;46967;48.876;2.136;2022-10-16T05:16:57;101128.28;;;14.97;92.80
61086;BME280;46967;48.876;2.136;2022-10-16T05:19:22;101137.03;;;14.96;92.93
61086;BME280;46967;48.876;2.136;2022-10-16T05:21:47;101142.31;;;14.95;93.15
61086;BME280;46967;48.876;2.136;2022-10-16T05:24:13;101137.09;;;14.95;93.63
61086;BME280;46967;48.876;2.136;2022-10-16T05:26:38;101136.31;;;14.93;93.63
61086;BME280;46967;48.876;2.136;2022-10-16T05:29:03;101126.78;;;14.92;93.36
61086;BME280;46967;48.876;2.136;2022-10-16T05:31:29;101129.50;;;14.89;93.20
61086;BME280;46967;48.876;2.136;2022-10-16T05:34:00;101120.63;;;14.93;93.10
61086;BME280;46967;48.876;2.136;2022-10-16T05:36:26;101130.28;;;14.91;93.65
61086;BME280;46967;48.876;2.136;2022-10-16T05:38:52;101134.75;;;14.89;93.60
61086;BME280;46967;48.876;2.136;2022-10-16T05:41:18;101117.72;;;14.80;93.86
61086;BME280;46967;48.876;2.136;2022-10-16T05:43:48;101120.38;;;14.78;94.26
61086;BME280;46967;48.876;2.136;2022-10-16T05:46:14;101126.50;;;14.77;94.46
61086;BME280;46967;48.876;2.136;2022-10-16T05:48:40;101124.09;;;14.73;94.45
61086;BME280;46967;48.876;2.136;2022-10-16T05:51:08;101129.44;;;14.70;94.19
61086;BME280;46967;48.876;2.136;2022-10-16T05:53:35;101128.66;;;14.67;94.37
61086;BME280;46967;48.876;2.136;2022-10-16T05:56:02;101134.78;;;14.66;95.06
61086;BME280;46967;48.876;2.136;2022-10-16T05:58:29;101137.66;;;14.60;95.16
61086;BME280;46967;48.876;2.136;2022-10-16T06:01:01;101129.84;;;14.59;95.49
61086;BME280;46967;48.876;2.136;2022-10-16T06:03:27;101136.13;;;14.55;95.70
61086;BME280;46967;48.876;2.136;2022-10-16T06:05:52;101136.06;;;14.56;96.16
61086;BME280;46967;48.876;2.136;2022-10-16T06:08:19;101136.91;;;14.57;96.31
61086;BME280;46967;48.876;2.136;2022-10-16T06:10:45;101135.31;;;14.53;96.29
61086;BME280;46967;48.876;2.136;2022-10-16T06:13:12;101132.84;;;14.49;96.50
61086;BME280;46967;48.876;2.136;2022-10-16T06:15:38;101138.06;;;14.49;96.29
61086;BME280;46967;48.876;2.136;2022-10-16T06:18:04;101135.44;;;14.49;96.46
61086;BME280;46967;48.876;2.136;2022-10-16T06:20:30;101137.09;;;14.52;96.41
61086;BME280;46967;48.876;2.136;2022-10-16T06:22:56;101127.63;;;14.49;96.26
61086;BME280;46967;48.876;2.136;2022-10-16T06:25:22;101127.69;;;14.48;96.05
61086;BME280;46967;48.876;2.136;2022-10-16T06:27:47;101133.81;;;14.47;96.32
61086;BME280;46967;48.876;2.136;2022-10-16T06:30:12;101137.34;;;14.46;95.98
61086;BME280;46967;48.876;2.136;2022-10-16T06:32:38;101157.34;;;14.47;96.17
61086;BME280;46967;48.876;2.136;2022-10-16T06:35:03;101160.97;;;14.43;95.85
61086;BME280;46967;48.876;2.136;2022-10-16T06:37:29;101158.41;;;14.41;95.72
61086;BME280;46967;48.876;2.136;2022-10-16T06:39:54;101166.25;;;14.41;95.91
61086;BME280;46967;48.876;2.136;2022-10-16T06:42:19;101164.56;;;14.40;95.81
61086;BME280;46967;48.876;2.136;2022-10-16T06:44:45;101160.44;;;14.35;96.20
61086;BME280;46967;48.876;2.136;2022-10-16T06:47:10;101152.53;;;14.36;96.18
61086;BME280;46967;48.876;2.136;2022-10-16T06:49:35;101155.94;;;14.38;96.59
61086;BME280;46967;48.876;2.136;2022-10-16T06:52:01;101167.78;;;14.47;96.21
61086;BME280;46967;48.876;2.136;2022-10-16T06:54:27;101164.97;;;14.52;96.65
61086;BME280;46967;48.876;2.136;2022-10-16T06:56:53;101166.66;;;14.53;97.03
61086;BME280;46967;48.876;2.136;2022-10-16T06:59:21;101167.34;;;14.58;96.82
61086;BME280;46967;48.876;2.136;2022-10-16T07:01:47;101166.47;;;14.57;96.75
61086;BME280;46967;48.876;2.136;2022-10-16T07:04:13;101174.31;;;14.57;96.53
61086;BME280;46967;48.876;2.136;2022-10-16T07:06:38;101175.03;;;14.62;96.62
61086;BME280;46967;48.876;2.136;2022-10-16T07:09:06;101177.53;;;14.65;96.20
61086;BME280;46967;48.876;2.136;2022-10-16T07:11:32;101186.06;;;14.69;96.31
61086;BME280;46967;48.876;2.136;2022-10-16T07:13:58;101195.66;;;14.68;96.58
61086;BME280;46967;48.876;2.136;2022-10-16T07:16:26;101189.59;;;14.68;96.63
61086;BME280;46967;48.876;2.136;2022-10-16T07:18:54;101196.34;;;14.74;96.70
61086;BME280;46967;48.876;2.136;2022-10-16T07:21:23;101188.44;;;14.75;96.22
61086;BME280;46967;48.876;2.136;2022-10-16T07:23:51;101191.03;;;14.75;95.76
61086;BME280;46967;48.876;2.136;2022-10-16T07:26:17;101198.75;;;14.78;96.36
61086;BME280;46967;48.876;2.136;2022-10-16T07:28:43;101204.50;;;14.87;96.12
61086;BME280;46967;48.876;2.136;2022-10-16T07:31:11;101211.28;;;14.91;95.55
61086;BME280;46967;48.876;2.136;2022-10-16T07:33:38;101214.66;;;14.94;95.43
61086;BME280;46967;48.876;2.136;2022-10-16T07:36:04;101216.94;;;15.02;95.10
61086;BME280;46967;48.876;2.136;2022-10-16T07:38:29;101220.22;;;15.07;94.48
61086;BME280;46967;48.876;2.136;2022-10-16T07:41:00;101213.03;;;15.12;94.29
61086;BME280;46967;48.876;2.136;2022-10-16T07:43:26;101222.69;;;15.10;94.22
61086;BME280;46967;48.876;2.136;2022-10-16T07:45:52;101210.28;;;15.15;93.57
61086;BME280;46967;48.876;2.136;2022-10-16T07:48:18;101217.94;;;15.20;93.45
61086;BME280;46967;48.876;2.136;2022-10-16T07:50:44;101213.47;;;15.22;92.60
61086;BME280;46967;48.876;2.136;2022-10-16T07:53:10;101218.44;;;15.28;92.81
61086;BME280;46967;48.876;2.136;2022-10-16T07:55:36;101224.25;;;15.35;92.68
61086;BME280;46967;48.876;2.136;2022-10-16T07:58:01;101226.88;;;15.35;92.64
61086;BME280;46967;48.876;2.136;2022-10-16T08:00:27;101234.66;;;15.36;92.36
61086;BME280;46967;48.876;2.136;2022-10-16T08:02:52;101231.19;;;15.36;92.31
61086;BME280;46967;48.876;2.136;2022-10-16T08:05:17;101238.91;;;15.39;92.21
61086;BME280;46967;48.876;2.136;2022-10-16T08:07:48;101249.38;;;15.39;92.20
61086;BME280;46967;48.876;2.136;2022-10-16T08:10:17;101261.38;;;15.43;91.69
61086;BME280;46967;48.876;2.136;2022-10-16T08:12:43;101262.25;;;15.44;91.46
61086;BME280;46967;48.876;2.136;2022-10-16T08:15:09;101260.22;;;15.50;90.84
61086;BME280;46967;48.876;2.136;2022-10-16T08:17:34;101241.84;;;15.52;90.91
61086;BME280;46967;48.876;2.136;2022-10-16T08:19:59;101233.94;;;15.53;90.93
61086;BME280;46967;48.876;2.136;2022-10-16T08:22:25;101242.28;;;15.62;90.13
61086;BME280;46967;48.876;2.136;2022-10-16T08:24:50;101237.88;;;15.62;90.66
61086;BME280;46967;48.876;2.136;2022-10-16T08:27:15;101244.81;;;15.63;89.85
61086;BME280;46967;48.876;2.136;2022-10-16T08:29:41;101260.41;;;15.66;89.61
61086;BME280;46967;48.876;2.136;2022-10-16T08:32:06;101268.81;;;15.73;88.91
61086;BME280;46967;48.876;2.136;2022-10-16T08:34:31;101271.50;;;15.71;87.97
61086;BME280;46967;48.876;2.136;2022-10-16T08:36:57;101268.94;;;15.70;88.51
61086;BME280;46967;48.876;2.136;2022-10-16T08:39:22;101275.13;;;15.69;88.78
61086;BME280;46967;48.876;2.136;2022-10-16T08:42:06;101272.44;;;15.70;88.71
61086;BME280;46967;48.876;2.136;2022-10-16T08:47:23;101267.91;;;15.74;88.71
61086;BME280;46967;48.876;2.136;2022-10-16T08:49:59;101275.25;;;15.86;88.72
61086;BME280;46967;48.876;2.136;2022-10-16T08:52:33;101275.56;;;15.99;87.54
61086;BME280;46967;48.876;2.136;2022-10-16T08:55:01;101268.34;;;16.04;87.46
61086;BME280;46967;48.876;2.136;2022-10-16T08:57:26;101276.47;;;16.17;86.06
61086;BME280;46967;48.876;2.136;2022-10-16T08:59:53;101280.19;;;16.32;84.99
61086;BME280;46967;48.876;2.136;2022-10-16T09:05:02;101286.25;;;16.52;84.24
61086;BME280;46967;48.876;2.136;2022-10-16T09:07:41;101272.91;;;16.75;82.88
61086;BME280;46967;48.876;2.136;2022-10-16T09:16:01;101260.63;;;17.30;81.29
61086;BME280;46967;48.876;2.136;2022-10-16T09:18:42;101268.63;;;17.44;80.75
61086;BME280;46967;48.876;2.136;2022-10-16T09:21:21;101271.06;;;17.65;81.24
61086;BME280;46967;48.876;2.136;2022-10-16T09:23:48;101269.00;;;17.87;78.42
61086;BME280;46967;48.876;2.136;2022-10-16T09:26:15;101265.50;;;17.88;76.04
61086;BME280;46967;48.876;2.136;2022-10-16T09:28:41;101281.69;;;17.79;75.96
61086;BME280;46967;48.876;2.136;2022-10-16T09:31:20;101271.50;;;17.73;75.31
61086;BME280;46967;48.876;2.136;2022-10-16T09:33:52;101273.03;;;17.61;75.98
61086;BME280;46967;48.876;2.136;2022-10-16T09:36:19;101281.34;;;17.69;74.76
61086;BME280;46967;48.876;2.136;2022-10-16T09:38:45;101278.34;;;17.60;74.94
61086;BME280;46967;48.876;2.136;2022-10-16T09:41:17;101268.47;;;17.47;75.51
61086;BME280;46967;48.876;2.136;2022-10-16T09:43:54;101276.50;;;17.44;75.90
61086;BME280;46967;48.876;2.136;2022-10-16T09:46:36;101281.00;;;17.42;77.86
61086;BME280;46967;48.876;2.136;2022-10-16T09:49:24;101287.00;;;17.44;78.44
61086;BME280;46967;48.876;2.136;2022-10-16T09:51:50;101282.78;;;17.42;76.80
61086;BME280;46967;48.876;2.136;2022-10-16T09:54:27;101276.22;;;17.33;77.52
61086;BME280;46967;48.876;2.136;2022-10-16T09:56:52;101272.59;;;17.35;78.07
61086;BME280;46967;48.876;2.136;2022-10-16T09:59:20;101270.81;;;17.36;79.00
61086;BME280;46967;48.876;2.136;2022-10-16T10:01:49;101265.63;;;17.52;78.88
61086;BME280;46967;48.876;2.136;2022-10-16T10:04:16;101267.28;;;17.70;77.77
61086;BME280;46967;48.876;2.136;2022-10-16T10:09:27;101257.91;;;17.82;77.85
61086;BME280;46967;48.876;2.136;2022-10-16T10:12:01;101254.16;;;17.88;76.69
61086;BME280;46967;48.876;2.136;2022-10-16T10:14:31;101260.59;;;17.98;76.68
61086;BME280;46967;48.876;2.136;2022-10-16T10:17:23;101261.53;;;17.97;76.13
61086;BME280;46967;48.876;2.136;2022-10-16T10:19:53;101257.38;;;17.93;75.39
61086;BME280;46967;48.876;2.136;2022-10-16T10:33:48;101244.44;;;18.06;76.52
61086;BME280;46967;48.876;2.136;2022-10-16T10:39:02;101246.31;;;18.04;75.50
61086;BME280;46967;48.876;2.136;2022-10-16T10:54:25;101224.00;;;18.11;74.35
61086;BME280;46967;48.876;2.136;2022-10-16T10:57:10;101232.25;;;18.21;74.74
61086;BME280;46967;48.876;2.136;2022-10-16T11:02:41;101224.13;;;18.41;74.80
61086;BME280;46967;48.876;2.136;2022-10-16T11:08:15;101207.22;;;18.45;72.85
61086;BME280;46967;48.876;2.136;2022-10-16T11:10:47;101212.97;;;18.52;73.59
61086;BME280;46967;48.876;2.136;2022-10-16T11:15:54;101213.06;;;18.51;72.81
61086;BME280;46967;48.876;2.136;2022-10-16T11:21:09;101223.56;;;18.51;72.11
61086;BME280;46967;48.876;2.136;2022-10-16T11:23:45;101223.66;;;18.49;72.31
61086;BME280;46967;48.876;2.136;2022-10-16T11:26:19;101229.09;;;18.46;73.15
61086;BME280;46967;48.876;2.136;2022-10-16T11:28:49;101227.06;;;18.51;75.08
61086;BME280;46967;48.876;2.136;2022-10-16T11:36:53;101216.34;;;18.70;74.86
61086;BME280;46967;48.876;2.136;2022-10-16T11:39:27;101202.78;;;18.78;74.75
61086;BME280;46967;48.876;2.136;2022-10-16T11:41:59;101209.63;;;18.80;73.29
61086;BME280;46967;48.876;2.136;2022-10-16T11:44:42;101197.69;;;18.75;73.25
61086;BME280;46967;48.876;2.136;2022-10-16T11:49:37;101187.38;;;18.56;73.34
61086;BME280;46967;48.876;2.136;2022-10-16T11:52:24;101192.50;;;18.43;74.26
61086;BME280;46967;48.876;2.136;2022-10-16T11:54:59;101184.72;;;18.41;74.49
61086;BME280;46967;48.876;2.136;2022-10-16T11:57:30;101183.06;;;18.55;75.47
61086;BME280;46967;48.876;2.136;2022-10-16T12:00:05;101183.31;;;18.80;74.49
61086;BME280;46967;48.876;2.136;2022-10-16T12:03:10;101184.06;;;18.98;73.78
61086;BME280;46967;48.876;2.136;2022-10-16T12:08:13;101177.69;;;19.03;73.17
61086;BME280;46967;48.876;2.136;2022-10-16T12:10:42;101183.47;;;18.93;73.71
61086;BME280;46967;48.876;2.136;2022-10-16T12:16:27;101179.28;;;18.91;74.70
61086;BME280;46967;48.876;2.136;2022-10-16T12:19:13;101181.28;;;18.86;75.54
61086;BME280;46967;48.876;2.136;2022-10-16T12:21:39;101188.66;;;18.79;75.79
61086;BME280;46967;48.876;2.136;2022-10-16T12:24:05;101189.19;;;18.70;76.41
61086;BME280;46967;48.876;2.136;2022-10-16T12:26:33;101184.81;;;18.70;75.72
61086;BME280;46967;48.876;2.136;2022-10-16T12:31:43;101179.81;;;18.65;76.40
61086;BME280;46967;48.876;2.136;2022-10-16T12:34:39;101181.00;;;18.60;76.73
61086;BME280;46967;48.876;2.136;2022-10-16T12:37:23;101171.38;;;18.60;76.96
61086;BME280;46967;48.876;2.136;2022-10-16T12:39:49;101162.34;;;18.64;77.32
61086;BME280;46967;48.876;2.136;2022-10-16T12:42:41;101163.97;;;18.67;76.54
61086;BME280;46967;48.876;2.136;2022-10-16T12:45:29;101158.53;;;18.70;76.80
61086;BME280;46967;48.876;2.136;2022-10-16T12:47:56;101153.19;;;18.72;76.68
61086;BME280;46967;48.876;2.136;2022-10-16T12:50:28;101149.25;;;18.79;76.95
61086;BME280;46967;48.876;2.136;2022-10-16T12:52:54;101146.44;;;18.82;76.83
61086;BME280;46967;48.876;2.136;2022-10-16T12:55:21;101149.06;;;18.82;76.91
61086;BME280;46967;48.876;2.136;2022-10-16T12:58:00;101141.16;;;18.82;77.16
61086;BME280;46967;48.876;2.136;2022-10-16T13:00:33;101149.97;;;18.81;77.27
61086;BME280;46967;48.876;2.136;2022-10-16T13:06:04;101152.22;;;19.03;76.90
61086;BME280;46967;48.876;2.136;2022-10-16T13:11:45;101148.41;;;19.23;75.77
61086;BME280;46967;48.876;2.136;2022-10-16T13:14:24;101140.03;;;19.16;76.32
61086;BME280;46967;48.876;2.136;2022-10-16T13:17:14;101133.06;;;19.15;76.87
61086;BME280;46967;48.876;2.136;2022-10-16T13:27:41;101112.41;;;20.21;73.98
61086;BME280;46967;48.876;2.136;2022-10-16T13:30:22;101115.97;;;20.48;72.82
61086;BME280;46967;48.876;2.136;2022-10-16T13:32:50;101109.66;;;20.63;72.76
61086;BME280;46967;48.876;2.136;2022-10-16T13:35:28;101102.72;;;20.62;71.25
61086;BME280;46967;48.876;2.136;2022-10-16T13:38:33;101101.53;;;20.13;72.59
61086;BME280;46967;48.876;2.136;2022-10-16T13:41:04;101118.53;;;19.95;73.37
61086;BME280;46967;48.876;2.136;2022-10-16T13:43:50;101123.19;;;19.77;74.67
61086;BME280;46967;48.876;2.136;2022-10-16T13:46:20;101123.19;;;19.77;75.09
61086;BME280;46967;48.876;2.136;2022-10-16T13:49:03;101135.31;;;19.65;76.03
61086;BME280;46967;48.876;2.136;2022-10-16T13:51:30;101136.19;;;19.51;77.45
61086;BME280;46967;48.876;2.136;2022-10-16T13:53:56;101129.69;;;19.42;77.47
61086;BME280;46967;48.876;2.136;2022-10-16T13:56:25;101126.03;;;19.45;77.91
61086;BME280;46967;48.876;2.136;2022-10-16T13:59:01;101118.13;;;19.45;78.32
61086;BME280;46967;48.876;2.136;2022-10-16T14:01:34;101124.53;;;19.41;78.48
61086;BME280;46967;48.876;2.136;2022-10-16T14:04:07;101126.97;;;19.44;78.40
61086;BME280;46967;48.876;2.136;2022-10-16T14:06:35;101119.06;;;19.44;78.17
61086;BME280;46967;48.876;2.136;2022-10-16T14:11:51;101118.06;;;19.46;78.36
61086;BME280;46967;48.876;2.136;2022-10-16T14:14:18;101127.72;;;19.46;78.82
61086;BME280;46967;48.876;2.136;2022-10-16T14:16:44;101129.59;;;19.44;78.69
61086;BME280;46967;48.876;2.136;2022-10-16T14:19:37;101121.59;;;19.45;79.33
61086;BME280;46967;48.876;2.136;2022-10-16T14:22:20;101124.88;;;19.49;79.35
61086;BME280;46967;48.876;2.136;2022-10-16T14:24:47;101124.78;;;19.50;79.77
61086;BME280;46967;48.876;2.136;2022-10-16T14:30:13;101116.81;;;19.52;79.33
61086;BME280;46967;48.876;2.136;2022-10-16T14:32:41;101116.41;;;19.58;79.64
61086;BME280;46967;48.876;2.136;2022-10-16T14:35:32;101112.94;;;19.58;80.04
61086;BME280;46967;48.876;2.136;2022-10-16T14:37:59;101118.56;;;19.66;78.49
61086;BME280;46967;48.876;2.136;2022-10-16T14:40:31;101116.78;;;19.66;78.65
61086;BME280;46967;48.876;2.136;2022-10-16T14:42:57;101112.84;;;19.59;78.98
61086;BME280;46967;48.876;2.136;2022-10-16T14:45:28;101126.84;;;19.60;79.41
61086;BME280;46967;48.876;2.136;2022-10-16T14:47:56;101121.50;;;19.61;79.46